Time;durP1;ratioP1;P1;durP2;ratioP2;P2;SDS_P1;SDS_P2;PMS_P1;PMS_P2;Temp;Humidity;BMP_temperature;BMP_pressure;BME280_temperature;BME280_humidity;BME280_pressure;Samples;Min_cycle;Max_cycle;Signal;HPM_P1;HPM_P2
2021/09/12 00:01:55;;;;;;;15.35;13.93;;;23.00;85.10;;;;;;4192620;28;20140;-63
2021/09/12 00:04:17;;;;;;;16.40;14.75;;;23.00;86.00;;;;;;4192473;28;20064;-63
2021/09/12 00:06:39;;;;;;;17.83;14.55;;;23.00;85.10;;;;;;4192485;28;20471;-63
2021/09/12 00:09:01;;;;;;;15.63;14.02;;;23.00;85.10;;;;;;4187701;28;20045;-63
2021/09/12 00:11:25;;;;;;;15.50;14.00;;;23.00;85.20;;;;;;4175832;28;20056;-63
2021/09/12 00:13:49;;;;;;;15.55;13.23;;;23.00;85.30;;;;;;4184285;28;20082;-62
2021/09/12 00:16:11;;;;;;;14.45;13.02;;;22.90;85.30;;;;;;4192065;28;20064;-63
2021/09/12 00:18:33;;;;;;;13.50;12.18;;;22.90;85.30;;;;;;4192277;28;20569;-63
2021/09/12 00:20:55;;;;;;;13.68;12.10;;;22.90;85.30;;;;;;4192038;28;20088;-63
2021/09/12 00:23:17;;;;;;;12.88;11.57;;;22.90;85.30;;;;;;4192363;28;20055;-63
2021/09/12 00:25:40;;;;;;;12.32;11.05;;;22.90;85.40;;;;;;4177103;28;20550;-63
2021/09/12 00:28:02;;;;;;;14.00;10.77;;;22.90;85.50;;;;;;4192361;28;20588;-63
2021/09/12 00:30:26;;;;;;;12.88;11.43;;;22.90;85.50;;;;;;4175673;28;20040;-63
2021/09/12 00:32:49;;;;;;;12.18;10.98;;;22.90;85.50;;;;;;4178740;28;20541;-63
2021/09/12 00:35:13;;;;;;;11.65;10.45;;;22.90;85.60;;;;;;4192032;28;20411;-63
2021/09/12 00:37:36;;;;;;;12.63;11.43;;;22.90;85.40;;;;;;4191935;28;20055;-62
2021/09/12 00:39:58;;;;;;;12.25;11.00;;;22.90;85.40;;;;;;4191054;28;20058;-62
2021/09/12 00:42:20;;;;;;;12.85;11.55;;;22.90;85.40;;;;;;4191649;28;20107;-62
2021/09/12 00:44:42;;;;;;;12.48;11.27;;;22.90;85.40;;;;;;4190303;28;20040;-63
2021/09/12 00:47:11;;;;;;;11.52;10.27;;;22.90;85.40;;;;;;4191663;28;20042;-62
2021/09/12 00:49:33;;;;;;;13.65;12.45;;;22.90;85.30;;;;;;4191223;28;20048;-63
2021/09/12 00:51:55;;;;;;;15.63;12.95;;;22.90;85.40;;;;;;4191176;28;20110;-62
2021/09/12 00:54:19;;;;;;;14.75;13.30;;;22.90;85.40;;;;;;4175332;28;20041;-62
2021/09/12 00:56:43;;;;;;;14.88;13.38;;;22.90;85.40;;;;;;4175133;28;20064;-63
2021/09/12 00:59:07;;;;;;;16.95;13.55;;;22.90;85.40;;;;;;4181781;28;20076;-63
2021/09/12 01:01:30;;;;;;;15.30;13.55;;;22.90;85.40;;;;;;4191640;28;20059;-63
2021/09/12 01:03:54;;;;;;;16.55;14.32;;;22.90;85.50;;;;;;4191666;28;20049;-62
2021/09/12 01:06:16;;;;;;;18.27;14.27;;;22.90;85.60;;;;;;4191461;28;20064;-62
2021/09/12 01:08:40;;;;;;;17.48;13.85;;;22.90;85.60;;;;;;4190019;28;20076;-62
2021/09/12 01:11:02;;;;;;;18.67;14.20;;;22.90;85.60;;;;;;4191563;28;20491;-63
2021/09/12 01:13:24;;;;;;;15.13;13.52;;;22.90;85.60;;;;;;4191031;28;20101;-63
2021/09/12 01:15:46;;;;;;;18.85;14.60;;;22.90;85.60;;;;;;4191528;28;20059;-62
2021/09/12 01:18:09;;;;;;;16.55;14.85;;;22.90;85.70;;;;;;4190660;28;20053;-63
2021/09/12 01:20:32;;;;;;;16.73;14.70;;;22.90;85.60;;;;;;4191553;28;20060;-63
2021/09/12 01:22:54;;;;;;;16.80;15.10;;;22.90;85.60;;;;;;4179675;28;20644;-63
2021/09/12 01:25:18;;;;;;;16.58;14.80;;;22.90;85.70;;;;;;4174694;28;20049;-62
2021/09/12 01:27:40;;;;;;;16.10;13.90;;;22.90;85.70;;;;;;4174542;28;20076;-63
2021/09/12 01:30:02;;;;;;;15.95;14.23;;;22.90;85.70;;;;;;4174723;28;20517;-63
2021/09/12 01:32:25;;;;;;;14.48;12.88;;;22.80;85.70;;;;;;4181018;28;20493;-63
2021/09/12 01:34:46;;;;;;;17.33;13.75;;;22.80;85.70;;;;;;4191151;28;20482;-63
2021/09/12 01:37:08;;;;;;;19.50;12.93;;;22.80;85.70;;;;;;4191159;28;20049;-63
2021/09/12 01:39:31;;;;;;;18.42;14.10;;;22.80;85.80;;;;;;4190350;28;20090;-63
2021/09/12 01:41:54;;;;;;;17.48;12.77;;;22.80;85.80;;;;;;4191081;28;20055;-62
2021/09/12 01:44:22;;;;;;;14.50;13.00;;;22.90;85.80;;;;;;4191473;28;20048;-62
2021/09/12 01:46:47;;;;;;;13.52;11.88;;;22.80;85.70;;;;;;4191078;28;20052;-62
2021/09/12 01:49:09;;;;;;;15.20;12.77;;;22.80;85.70;;;;;;4189962;28;20053;-63
2021/09/12 01:51:31;;;;;;;15.20;12.48;;;22.80;85.70;;;;;;4193569;28;20131;-62
2021/09/12 01:53:53;;;;;;;14.02;12.63;;;22.80;85.80;;;;;;4196343;28;20127;-62
2021/09/12 01:56:16;;;;;;;13.85;12.23;;;22.80;85.80;;;;;;4196751;28;20072;-63
2021/09/12 01:58:40;;;;;;;14.02;11.75;;;22.80;85.80;;;;;;4185795;28;20491;-62
2021/09/12 02:01:03;;;;;;;14.30;10.88;;;22.80;85.80;;;;;;4179953;28;20044;-62
2021/09/12 02:03:25;;;;;;;13.60;11.55;;;22.80;85.80;;;;;;4179600;28;20557;-62
2021/09/12 02:05:47;;;;;;;14.88;11.73;;;22.80;85.80;;;;;;4177640;28;20056;-62
2021/09/12 02:08:09;;;;;;;14.18;12.43;;;22.80;85.80;;;;;;4185960;28;20060;-61
2021/09/12 02:10:31;;;;;;;16.77;13.27;;;22.80;85.80;;;;;;4195491;28;20173;-61
2021/09/12 02:12:54;;;;;;;14.40;11.68;;;22.80;85.80;;;;;;4194127;28;20048;-62
2021/09/12 02:15:17;;;;;;;15.05;12.05;;;22.80;85.90;;;;;;4193592;28;20048;-61
2021/09/12 02:17:39;;;;;;;15.68;11.70;;;22.80;85.90;;;;;;4195460;28;20131;-62
2021/09/12 02:20:02;;;;;;;13.27;11.43;;;22.80;85.80;;;;;;4180684;28;20055;-62
2021/09/12 02:22:24;;;;;;;16.05;12.02;;;22.70;85.60;;;;;;4195881;28;20044;-62
2021/09/12 02:24:46;;;;;;;13.50;11.20;;;22.70;85.60;;;;;;4194056;28;20052;-62
2021/09/12 02:27:08;;;;;;;14.40;11.43;;;22.70;85.60;;;;;;4179691;28;20057;-62
2021/09/12 02:29:30;;;;;;;15.95;12.15;;;22.70;85.80;;;;;;4180298;28;20049;-62
2021/09/12 02:31:53;;;;;;;13.88;11.38;;;22.70;85.60;;;;;;4188102;28;20554;-62
2021/09/12 02:34:16;;;;;;;12.25;10.32;;;22.70;85.60;;;;;;4196401;28;20552;-62
2021/09/12 02:36:38;;;;;;;11.63;10.43;;;22.70;85.70;;;;;;4196343;28;20048;-62
2021/09/12 02:39:00;;;;;;;11.82;9.68;;;22.70;85.40;;;;;;4196152;28;20040;-62
2021/09/12 02:41:22;;;;;;;14.10;10.93;;;22.70;85.50;;;;;;4179640;28;20051;-60
2021/09/12 02:43:44;;;;;;;14.20;10.40;;;22.70;85.80;;;;;;4179660;28;20051;-62
2021/09/12 02:46:07;;;;;;;11.25;10.02;;;22.70;85.70;;;;;;4179792;28;20506;-62
2021/09/12 02:48:30;;;;;;;13.20;9.90;;;22.70;86.60;;;;;;4178976;28;20072;-61
2021/09/12 02:50:52;;;;;;;13.93;9.68;;;22.70;85.50;;;;;;4179132;28;20052;-62
2021/09/12 02:53:14;;;;;;;11.55;9.45;;;22.70;85.60;;;;;;4179498;28;20045;-61
2021/09/12 02:55:35;;;;;;;10.10;8.48;;;22.70;85.50;;;;;;4179348;28;20064;-62
2021/09/12 02:57:58;;;;;;;13.93;9.40;;;22.70;85.50;;;;;;4179429;28;20053;-61
2021/09/12 03:00:20;;;;;;;13.70;8.77;;;22.70;85.50;;;;;;4179161;28;20123;-62
2021/09/12 03:02:42;;;;;;;11.70;9.32;;;22.70;86.30;;;;;;4177661;28;20052;-61
2021/09/12 03:05:07;;;;;;;15.98;9.80;;;22.70;85.50;;;;;;4176792;28;20045;-61
2021/09/12 03:07:29;;;;;;;9.32;8.35;;;22.70;85.30;;;;;;4176508;28;20055;-62
2021/09/12 03:09:51;;;;;;;11.90;8.93;;;22.70;85.30;;;;;;4178191;28;20461;-61
2021/09/12 03:12:13;;;;;;;11.80;8.45;;;22.70;85.30;;;;;;4177174;28;20056;-61
2021/09/12 03:14:35;;;;;;;10.73;9.07;;;22.70;85.30;;;;;;4177882;28;20044;-61
2021/09/12 03:16:58;;;;;;;10.27;8.25;;;22.70;85.30;;;;;;4176670;28;20063;-62
2021/09/12 03:19:20;;;;;;;13.82;8.45;;;22.70;85.30;;;;;;4177953;28;20060;-62
2021/09/12 03:21:44;;;;;;;11.00;8.75;;;22.60;85.30;;;;;;4176625;28;20037;-62
2021/09/12 03:24:06;;;;;;;10.65;8.00;;;22.60;85.20;;;;;;4167397;28;20057;-62
2021/09/12 03:26:28;;;;;;;10.98;8.32;;;22.60;85.30;;;;;;4176625;28;20049;-62
2021/09/12 03:28:50;;;;;;;11.50;8.45;;;22.60;85.40;;;;;;4176463;28;20048;-62
2021/09/12 03:31:12;;;;;;;9.45;8.55;;;22.60;85.30;;;;;;4185283;28;20052;-61
2021/09/12 03:33:34;;;;;;;12.73;8.30;;;22.60;85.20;;;;;;4193244;28;20043;-62
2021/09/12 03:35:56;;;;;;;11.75;7.93;;;22.60;85.20;;;;;;4187239;28;20487;-61
2021/09/12 03:38:20;;;;;;;12.00;8.30;;;22.60;85.20;;;;;;4176129;28;20076;-62
2021/09/12 03:40:42;;;;;;;11.98;8.50;;;22.60;85.20;;;;;;4176601;28;20127;-62
2021/09/12 03:43:05;;;;;;;11.93;8.10;;;22.60;85.40;;;;;;4176268;28;20072;-62
2021/09/12 03:45:27;;;;;;;12.75;8.05;;;22.60;85.30;;;;;;4176247;28;20049;-62
2021/09/12 03:47:49;;;;;;;8.98;7.47;;;22.60;85.20;;;;;;4182488;28;20045;-61
2021/09/12 03:50:11;;;;;;;11.90;7.93;;;22.60;85.10;;;;;;4192332;28;20052;-61
2021/09/12 03:52:33;;;;;;;11.57;8.13;;;22.60;85.10;;;;;;4192670;28;20047;-61
2021/09/12 03:54:57;;;;;;;9.98;6.55;;;22.60;85.10;;;;;;4192826;28;20461;-61
2021/09/12 03:57:20;;;;;;;10.40;7.45;;;22.60;85.00;;;;;;4192723;28;20110;-62
2021/09/12 03:59:42;;;;;;;8.73;6.82;;;22.60;85.10;;;;;;4186142;28;20479;-61
2021/09/12 04:02:04;;;;;;;9.95;6.63;;;22.60;85.20;;;;;;4175723;28;20049;-62
2021/09/12 04:04:26;;;;;;;9.75;6.38;;;22.60;85.20;;;;;;4176021;28;20079;-61
2021/09/12 04:06:48;;;;;;;9.23;7.05;;;22.60;85.10;;;;;;4175826;28;20127;-62
2021/09/12 04:09:11;;;;;;;8.30;6.22;;;22.60;85.90;;;;;;4190778;28;20051;-62
2021/09/12 04:11:34;;;;;;;11.45;7.20;;;22.60;85.10;;;;;;4192573;28;20041;-62
2021/09/12 04:13:56;;;;;;;10.55;7.15;;;22.60;85.00;;;;;;4191989;28;20056;-62
2021/09/12 04:16:18;;;;;;;7.57;5.72;;;22.60;85.10;;;;;;4192276;28;20048;-61
2021/09/12 04:18:40;;;;;;;9.20;6.63;;;22.60;84.90;;;;;;4180898;28;20049;-62
2021/09/12 04:21:02;;;;;;;9.75;6.40;;;22.50;84.90;;;;;;4190076;28;20076;-61
2021/09/12 04:23:25;;;;;;;7.97;5.88;;;22.60;85.00;;;;;;4175592;28;20052;-62
2021/09/12 04:25:47;;;;;;;10.60;6.35;;;22.50;84.80;;;;;;4159137;28;20500;-62
2021/09/12 04:28:10;;;;;;;11.13;6.50;;;22.50;84.90;;;;;;4158952;28;20106;-62
2021/09/12 04:30:32;;;;;;;8.52;5.65;;;22.50;84.90;;;;;;4159067;28;20079;-61
2021/09/12 04:32:54;;;;;;;8.48;5.70;;;22.50;84.80;;;;;;4159130;28;20046;-61
2021/09/12 04:35:16;;;;;;;8.48;5.65;;;22.50;84.60;;;;;;4159135;28;20081;-62
2021/09/12 04:37:39;;;;;;;7.70;5.75;;;22.50;84.60;;;;;;4159243;28;20494;-62
2021/09/12 04:40:01;;;;;;;7.78;5.80;;;22.50;84.70;;;;;;4181869;28;20151;-62
2021/09/12 04:42:23;;;;;;;10.25;5.43;;;22.50;84.50;;;;;;4191707;28;20052;-62
2021/09/12 04:44:47;;;;;;;9.02;5.50;;;22.50;84.60;;;;;;4184480;28;20482;-62
2021/09/12 04:47:10;;;;;;;6.97;5.85;;;22.50;84.50;;;;;;4191664;28;20546;-62
2021/09/12 04:49:32;;;;;;;8.18;5.60;;;22.50;84.60;;;;;;4191575;28;20060;-62
2021/09/12 04:51:54;;;;;;;9.10;5.72;;;22.50;84.50;;;;;;4174402;28;20041;-62
2021/09/12 04:54:16;;;;;;;8.10;5.05;;;22.50;84.60;;;;;;4173842;28;20472;-62
2021/09/12 04:56:37;;;;;;;7.75;5.65;;;22.50;84.50;;;;;;4175034;28;20053;-62
2021/09/12 04:58:59;;;;;;;7.30;5.07;;;22.50;85.30;;;;;;4190337;28;20052;-62
2021/09/12 05:01:23;;;;;;;10.02;5.43;;;22.50;84.40;;;;;;4173861;28;20052;-61
2021/09/12 05:03:46;;;;;;;11.38;5.90;;;22.50;84.60;;;;;;4158594;28;20049;-61
2021/09/12 05:06:08;;;;;;;7.18;5.82;;;22.50;84.50;;;;;;4158698;28;20136;-61
2021/09/12 05:08:30;;;;;;;7.93;5.85;;;22.50;84.40;;;;;;4173611;28;20502;-62
2021/09/12 05:10:52;;;;;;;8.52;5.57;;;22.50;84.50;;;;;;4175126;28;20918;-62
2021/09/12 05:13:14;;;;;;;9.45;6.03;;;22.50;84.60;;;;;;4174110;28;20106;-62
2021/09/12 05:15:36;;;;;;;7.53;5.20;;;22.50;84.70;;;;;;4175138;28;20072;-62
2021/09/12 05:18:00;;;;;;;8.23;5.43;;;22.50;84.50;;;;;;4174859;28;20056;-62
2021/09/12 05:20:22;;;;;;;8.00;5.50;;;22.50;84.40;;;;;;4171877;28;20055;-62
2021/09/12 05:22:44;;;;;;;8.25;5.40;;;22.50;84.40;;;;;;4191332;28;20060;-61
2021/09/12 05:25:08;;;;;;;9.80;6.53;;;22.40;84.40;;;;;;4191289;28;20044;-61
2021/09/12 05:27:30;;;;;;;7.70;5.55;;;22.40;84.10;;;;;;4191109;28;20060;-62
2021/09/12 05:29:52;;;;;;;7.55;5.72;;;22.40;84.10;;;;;;4188873;28;20102;-62
2021/09/12 05:32:14;;;;;;;6.90;5.53;;;22.40;85.30;;;;;;4191139;28;20409;-61
2021/09/12 05:34:38;;;;;;;9.35;5.57;;;22.50;84.20;;;;;;4191217;28;20052;-63
2021/09/12 05:37:00;;;;;;;8.40;5.47;;;22.50;84.40;;;;;;4190571;28;20135;-62
2021/09/12 05:39:22;;;;;;;9.23;5.47;;;22.50;84.70;;;;;;4188148;28;20433;-62
2021/09/12 05:41:44;;;;;;;8.35;5.82;;;22.50;84.60;;;;;;4181425;28;20049;-62
2021/09/12 05:44:06;;;;;;;10.00;5.70;;;22.50;84.60;;;;;;4191301;28;20478;-62
2021/09/12 05:46:28;;;;;;;9.68;5.82;;;22.50;84.60;;;;;;4178671;28;20049;-62
2021/09/12 05:48:50;;;;;;;8.48;5.55;;;22.50;84.40;;;;;;4178674;28;20056;-62
2021/09/12 05:51:14;;;;;;;9.95;5.68;;;22.50;84.30;;;;;;4190350;28;20040;-62
2021/09/12 05:53:36;;;;;;;8.98;5.97;;;22.50;84.10;;;;;;4190886;28;20117;-62
2021/09/12 05:55:59;;;;;;;7.85;5.85;;;22.50;84.20;;;;;;4189713;28;20072;-62
2021/09/12 05:58:21;;;;;;;8.85;5.85;;;22.50;83.70;;;;;;4190894;28;20403;-62
2021/09/12 06:00:43;;;;;;;7.22;5.13;;;22.40;84.20;;;;;;4191264;28;20418;-62
2021/09/12 06:03:05;;;;;;;11.15;6.50;;;22.40;84.30;;;;;;4189948;28;20442;-62
2021/09/12 06:05:27;;;;;;;9.98;6.15;;;22.40;84.10;;;;;;4189523;28;20502;-62
2021/09/12 06:07:51;;;;;;;9.20;5.38;;;22.40;84.40;;;;;;4172952;28;20519;-65
2021/09/12 06:10:14;;;;;;;8.57;6.30;;;22.40;84.30;;;;;;4172987;28;20088;-62
2021/09/12 06:12:36;;;;;;;6.65;5.45;;;22.40;84.30;;;;;;4173471;28;20057;-62
2021/09/12 06:14:58;;;;;;;8.07;5.63;;;22.40;84.20;;;;;;4173418;28;20065;-61
2021/09/12 06:17:20;;;;;;;8.20;5.47;;;22.40;84.10;;;;;;4166588;28;20487;-62
2021/09/12 06:19:42;;;;;;;8.45;5.50;;;22.40;84.10;;;;;;4172483;28;20060;-62
2021/09/12 06:22:05;;;;;;;7.30;4.82;;;22.40;84.30;;;;;;4190589;28;20499;-62
2021/09/12 06:24:28;;;;;;;10.15;6.00;;;22.40;84.20;;;;;;4174051;28;20044;-62
2021/09/12 06:26:51;;;;;;;7.03;5.43;;;22.40;84.20;;;;;;4189356;28;20522;-62
2021/09/12 06:29:13;;;;;;;8.65;5.32;;;22.40;84.20;;;;;;4190627;28;20049;-61
2021/09/12 06:31:35;;;;;;;8.75;5.82;;;22.40;84.20;;;;;;4189019;28;20052;-61
2021/09/12 06:33:57;;;;;;;5.97;4.80;;;22.40;84.40;;;;;;4190479;28;20049;-60
2021/09/12 06:36:20;;;;;;;10.82;5.80;;;22.40;84.80;;;;;;4174273;28;20055;-61
2021/09/12 06:38:42;;;;;;;7.38;5.55;;;22.40;84.80;;;;;;4175809;28;20048;-61
2021/09/12 06:41:05;;;;;;;9.68;5.47;;;22.40;85.00;;;;;;4177278;28;20106;-61
2021/09/12 06:43:28;;;;;;;8.43;5.72;;;22.40;84.80;;;;;;4177173;28;20057;-60
2021/09/12 06:45:50;;;;;;;9.40;5.75;;;22.40;84.80;;;;;;4177114;28;20485;-60
2021/09/12 06:48:12;;;;;;;7.40;5.18;;;22.40;84.80;;;;;;4176803;28;20410;-61
2021/09/12 06:50:34;;;;;;;7.00;5.22;;;22.40;84.80;;;;;;4170981;28;20049;-60
2021/09/12 06:52:57;;;;;;;6.78;4.82;;;22.40;84.90;;;;;;4176160;28;20495;-60
2021/09/12 06:55:19;;;;;;;6.95;5.35;;;22.40;85.00;;;;;;4178524;28;20060;-60
2021/09/12 06:57:43;;;;;;;12.90;5.80;;;22.40;84.80;;;;;;4176334;28;20136;-61
2021/09/12 07:00:06;;;;;;;8.07;4.82;;;22.40;84.50;;;;;;4172073;28;20049;-61
2021/09/12 07:02:28;;;;;;;8.70;5.20;;;22.40;84.40;;;;;;4160231;28;20461;-60
2021/09/12 07:04:50;;;;;;;9.50;5.68;;;22.40;84.70;;;;;;4164449;28;20053;-60
2021/09/12 07:07:12;;;;;;;8.93;5.63;;;22.40;84.20;;;;;;4193196;28;20040;-60
2021/09/12 07:09:35;;;;;;;6.95;4.95;;;22.40;84.20;;;;;;4177757;28;20131;-60
2021/09/12 07:11:57;;;;;;;9.50;5.30;;;22.40;84.20;;;;;;4197532;28;20056;-60
2021/09/12 07:14:36;;;;;;;9.00;5.50;;;22.40;84.20;;;;;;4209844;28;20075;-60
2021/09/12 07:16:59;;;;;;;11.55;5.97;;;22.40;84.00;;;;;;4210142;28;20098;-60
2021/09/12 07:19:21;;;;;;;9.73;5.78;;;22.30;84.10;;;;;;4209983;28;20059;-60
2021/09/12 07:21:43;;;;;;;9.20;6.03;;;22.30;84.00;;;;;;4209081;28;20047;-61
2021/09/12 07:24:06;;;;;;;8.30;4.70;;;22.40;84.10;;;;;;4165438;28;20087;-60
2021/09/12 07:26:27;;;;;;;7.85;5.10;;;22.40;84.10;;;;;;4193287;28;20049;-60
2021/09/12 07:28:50;;;;;;;7.72;5.20;;;22.40;84.30;;;;;;4193210;28;20048;-60
2021/09/12 07:31:13;;;;;;;8.77;5.88;;;22.40;84.20;;;;;;4185781;28;20060;-61
2021/09/12 07:33:36;;;;;;;8.63;5.75;;;22.40;84.10;;;;;;4192999;28;20138;-60
2021/09/12 07:35:58;;;;;;;8.98;5.88;;;22.40;84.00;;;;;;4192969;28;20063;-60
2021/09/12 07:38:20;;;;;;;9.93;5.20;;;22.40;83.90;;;;;;4159906;28;20048;-61
2021/09/12 07:40:42;;;;;;;8.27;5.50;;;22.40;83.90;;;;;;4164512;28;20102;-61
2021/09/12 07:43:04;;;;;;;10.02;5.35;;;22.40;83.70;;;;;;4176386;28;20048;-60
2021/09/12 07:45:26;;;;;;;8.70;5.13;;;22.40;83.70;;;;;;4191443;28;20067;-62
2021/09/12 07:47:53;;;;;;;7.53;5.45;;;22.40;83.70;;;;;;4171269;28;20140;-62
2021/09/12 07:50:15;;;;;;;7.15;5.60;;;22.40;83.70;;;;;;4175598;28;20060;-60
2021/09/12 07:52:41;;;;;;;8.80;4.70;;;22.40;83.60;;;;;;4176178;28;20110;-60
2021/09/12 07:55:04;;;;;;;10.88;6.30;;;22.40;83.60;;;;;;4176239;28;20415;-60
2021/09/12 07:57:27;;;;;;;10.48;6.45;;;22.40;83.60;;;;;;4163806;28;20049;-60
2021/09/12 07:59:49;;;;;;;12.73;6.18;;;22.40;83.60;;;;;;4159473;28;20053;-60
2021/09/12 08:02:11;;;;;;;11.07;6.63;;;22.40;83.60;;;;;;4162538;28;20132;-59
2021/09/12 08:04:34;;;;;;;9.55;5.80;;;22.40;83.60;;;;;;4190858;28;20052;-60
2021/09/12 08:06:57;;;;;;;15.80;6.97;;;22.40;83.60;;;;;;4176119;28;20513;-60
2021/09/12 08:09:19;;;;;;;10.75;6.00;;;22.40;83.60;;;;;;4175161;28;20617;-60
2021/09/12 08:11:41;;;;;;;11.77;7.00;;;22.40;83.60;;;;;;4175727;28;20049;-60
2021/09/12 08:14:03;;;;;;;10.68;7.10;;;22.40;83.60;;;;;;4191147;28;20521;-60
2021/09/12 08:16:25;;;;;;;10.55;6.40;;;22.40;83.60;;;;;;4176972;28;20041;-60
2021/09/12 08:18:48;;;;;;;8.60;6.43;;;22.40;84.40;;;;;;4192249;28;20055;-59
2021/09/12 08:21:11;;;;;;;10.30;6.93;;;22.40;83.50;;;;;;4183230;28;20546;-60
2021/09/12 08:23:34;;;;;;;12.57;6.93;;;22.40;83.60;;;;;;4175664;28;20045;-59
2021/09/12 08:25:56;;;;;;;11.13;6.63;;;22.40;83.50;;;;;;4174045;28;20048;-59
2021/09/12 08:28:18;;;;;;;12.38;7.00;;;22.40;83.40;;;;;;4175453;28;20055;-59
2021/09/12 08:30:43;;;;;;;8.65;6.47;;;22.40;83.50;;;;;;4175303;28;20410;-60
2021/09/12 08:33:10;;;;;;;10.93;6.70;;;22.50;83.50;;;;;;4182281;28;20552;-59
2021/09/12 08:35:32;;;;;;;11.52;7.53;;;22.40;83.40;;;;;;4191594;28;20048;-61
2021/09/12 08:37:56;;;;;;;12.77;7.03;;;22.50;83.60;;;;;;4192093;28;20756;-60
2021/09/12 08:40:18;;;;;;;8.45;7.20;;;22.50;84.40;;;;;;4175839;28;20045;-60
2021/09/12 08:42:42;;;;;;;11.10;6.50;;;22.50;83.50;;;;;;4175455;28;20045;-59
2021/09/12 08:45:06;;;;;;;9.20;6.88;;;22.50;83.50;;;;;;4166873;28;20565;-61
2021/09/12 08:47:29;;;;;;;9.30;6.38;;;22.60;83.60;;;;;;4190401;28;20036;-60
2021/09/12 08:49:52;;;;;;;9.57;6.38;;;22.60;83.60;;;;;;4191614;28;20072;-58
2021/09/12 08:52:15;;;;;;;10.77;5.95;;;22.60;83.60;;;;;;4126372;28;20050;-58
2021/09/12 08:54:39;;;;;;;7.88;5.60;;;22.60;83.40;;;;;;4126281;28;20046;-59
2021/09/12 08:57:01;;;;;;;9.88;6.45;;;22.70;83.30;;;;;;4133502;28;20057;-60
2021/09/12 08:59:27;;;;;;;12.13;6.75;;;22.70;83.20;;;;;;4136180;28;20065;-59
2021/09/12 09:01:55;;;;;;;8.35;6.38;;;22.70;83.10;;;;;;4125664;28;20038;-60
2021/09/12 09:04:19;;;;;;;11.90;6.47;;;22.70;83.10;;;;;;4150604;28;20045;-58
2021/09/12 09:06:41;;;;;;;6.35;5.40;;;22.70;83.80;;;;;;4141985;28;20815;-61
2021/09/12 09:09:04;;;;;;;8.98;5.90;;;22.70;82.90;;;;;;4142344;28;20050;-60
2021/09/12 09:11:32;;;;;;;9.25;6.53;;;22.70;82.90;;;;;;4137989;28;20061;-60
2021/09/12 09:13:54;;;;;;;6.93;5.70;;;22.70;82.80;;;;;;4133538;28;20057;-59
2021/09/12 09:16:27;;;;;;;9.57;6.00;;;22.70;82.80;;;;;;4125970;28;20050;-59
2021/09/12 09:18:49;;;;;;;10.40;5.63;;;22.80;82.90;;;;;;4125601;28;20046;-59
2021/09/12 09:21:25;;;;;;;9.20;5.70;;;22.80;82.70;;;;;;4141423;28;20515;-60
2021/09/12 09:23:47;;;;;;;7.85;5.82;;;22.80;82.70;;;;;;4141687;28;20053;-59
2021/09/12 09:26:20;;;;;;;7.75;5.68;;;22.80;83.50;;;;;;4142012;28;20049;-60
2021/09/12 09:28:55;;;;;;;7.85;5.47;;;22.80;82.50;;;;;;4157888;28;20048;-59
2021/09/12 09:31:23;;;;;;;9.23;5.18;;;22.80;82.40;;;;;;4157905;28;20452;-60
2021/09/12 09:33:45;;;;;;;9.30;5.68;;;22.80;82.40;;;;;;4158240;28;20045;-58
2021/09/12 09:36:11;;;;;;;8.90;6.15;;;22.80;82.40;;;;;;4158437;28;20830;-58
2021/09/12 09:38:36;;;;;;;8.77;5.53;;;22.80;82.40;;;;;;4157456;28;20143;-59
2021/09/12 09:40:59;;;;;;;9.27;5.70;;;22.80;82.40;;;;;;4140572;28;20050;-59
2021/09/12 09:43:22;;;;;;;6.88;5.63;;;22.80;82.30;;;;;;4140085;28;20098;-58
2021/09/12 09:45:45;;;;;;;7.88;5.55;;;22.90;82.20;;;;;;4125612;28;20073;-60
2021/09/12 09:48:14;;;;;;;8.77;5.00;;;22.90;82.80;;;;;;4125236;28;20133;-59
2021/09/12 09:50:36;;;;;;;8.85;5.50;;;22.90;82.00;;;;;;4133780;28;20128;-60
2021/09/12 09:52:58;;;;;;;6.55;5.95;;;22.90;81.80;;;;;;4175535;28;20488;-60
2021/09/12 09:55:23;;;;;;;7.32;5.20;;;22.90;81.70;;;;;;4174606;28;20052;-60
2021/09/12 09:57:46;;;;;;;6.03;4.72;;;22.90;81.50;;;;;;4190880;28;20044;-60
2021/09/12 10:00:09;;;;;;;7.32;5.20;;;22.90;81.40;;;;;;4191168;28;20076;-60
2021/09/12 10:02:33;;;;;;;7.43;5.38;;;23.00;81.40;;;;;;4190349;28;20433;-58
2021/09/12 10:04:57;;;;;;;6.78;5.13;;;22.90;81.20;;;;;;4173598;28;20060;-59
2021/09/12 10:07:19;;;;;;;6.80;5.13;;;23.00;81.30;;;;;;4174506;28;20049;-60
2021/09/12 10:09:41;;;;;;;6.20;4.93;;;23.00;80.90;;;;;;4174226;28;20049;-59
2021/09/12 10:12:09;;;;;;;8.70;4.82;;;23.00;80.80;;;;;;4175123;28;20515;-59
2021/09/12 10:14:35;;;;;;;6.50;4.78;;;23.00;80.50;;;;;;4177602;28;20048;-59
2021/09/12 10:17:00;;;;;;;5.72;4.88;;;23.10;80.60;;;;;;4177470;28;20124;-59
2021/09/12 10:19:34;;;;;;;6.57;4.45;;;23.10;80.30;;;;;;4177478;28;20055;-59
2021/09/12 10:22:00;;;;;;;8.63;5.15;;;23.10;80.10;;;;;;4175942;28;20088;-59
2021/09/12 10:24:22;;;;;;;7.47;6.30;;;23.10;80.10;;;;;;4161275;28;20605;-60
2021/09/12 10:26:44;;;;;;;7.20;5.97;;;23.10;80.20;;;;;;4161087;28;20045;-60
2021/09/12 10:29:44;;;;;;;8.60;7.32;;;23.10;80.20;;;;;;4161026;28;20045;-59
2021/09/12 10:32:34;;;;;;;9.32;6.80;;;23.10;80.30;;;;;;4176460;28;20041;-59
2021/09/12 10:35:23;;;;;;;8.75;7.22;;;23.00;80.40;;;;;;4184656;28;20056;-59
2021/09/12 10:37:59;;;;;;;11.93;7.80;;;23.00;80.60;;;;;;4193781;28;20044;-60
2021/09/12 10:40:21;;;;;;;8.15;6.70;;;23.00;80.90;;;;;;4160715;28;20422;-60
2021/09/12 10:42:43;;;;;;;10.02;6.75;;;23.00;81.70;;;;;;4160414;28;20491;-59
2021/09/12 10:45:28;;;;;;;7.05;6.25;;;22.90;81.00;;;;;;4166739;28;20443;-59
2021/09/12 10:47:50;;;;;;;8.20;6.57;;;22.90;81.00;;;;;;4176748;28;20076;-59
2021/09/12 10:50:45;;;;;;;6.72;6.00;;;22.90;81.00;;;;;;4177085;28;20045;-59
2021/09/12 10:53:06;;;;;;;8.23;5.65;;;22.90;81.00;;;;;;4182507;28;20048;-60
2021/09/12 10:55:50;;;;;;;8.32;6.22;;;22.90;81.10;;;;;;4160531;28;20065;-59
2021/09/12 10:58:13;;;;;;;9.05;6.72;;;22.90;81.10;;;;;;4176088;28;20082;-58
2021/09/12 11:00:35;;;;;;;9.15;6.75;;;22.80;81.10;;;;;;4177012;28;20044;-62
2021/09/12 11:02:59;;;;;;;12.43;6.78;;;22.80;81.20;;;;;;4192177;28;20483;-59
2021/09/12 11:05:25;;;;;;;6.75;6.07;;;22.80;81.10;;;;;;4210111;28;20464;-61
2021/09/12 11:07:53;;;;;;;6.75;5.57;;;22.80;81.20;;;;;;4210076;28;20052;-59
2021/09/12 11:10:34;;;;;;;6.45;5.80;;;22.80;82.10;;;;;;4183426;28;20049;-60
2021/09/12 11:12:58;;;;;;;6.43;5.80;;;22.80;82.10;;;;;;4176210;28;20056;-59
2021/09/12 11:15:25;;;;;;;8.00;7.22;;;22.70;81.30;;;;;;4193590;28;20053;-59
2021/09/12 11:17:53;;;;;;;13.25;7.10;;;22.70;81.50;;;;;;4192992;28;20076;-62
2021/09/12 11:20:15;;;;;;;11.82;8.10;;;22.70;81.70;;;;;;4191923;28;20068;-60
2021/09/12 11:22:49;;;;;;;11.05;7.60;;;22.70;82.60;;;;;;4176663;28;20103;-59
2021/09/12 11:25:12;;;;;;;9.93;7.20;;;22.70;81.90;;;;;;4175923;28;20083;-60
2021/09/12 11:27:35;;;;;;;12.27;7.88;;;22.80;82.20;;;;;;4177319;28;20048;-58
2021/09/12 11:29:57;;;;;;;9.23;7.15;;;22.80;82.50;;;;;;4176705;28;20048;-57
2021/09/12 11:32:20;;;;;;;11.63;9.18;;;22.80;82.70;;;;;;4176354;28;20056;-60
2021/09/12 11:34:44;;;;;;;9.70;8.35;;;22.80;83.10;;;;;;4162211;28;20049;-60
2021/09/12 11:37:08;;;;;;;17.10;9.27;;;22.80;83.20;;;;;;4160427;28;20053;-60
2021/09/12 11:39:32;;;;;;;14.90;9.52;;;22.80;83.40;;;;;;4169963;28;20106;-59
2021/09/12 11:41:57;;;;;;;9.55;7.18;;;22.80;83.70;;;;;;4176611;28;20080;-59
2021/09/12 11:44:20;;;;;;;12.27;7.28;;;22.90;83.50;;;;;;4176436;28;20045;-59
2021/09/12 11:46:44;;;;;;;9.45;6.25;;;22.90;85.20;;;;;;4176375;28;20079;-59
2021/09/12 11:49:08;;;;;;;10.23;4.35;;;22.90;84.70;;;;;;4192819;28;20110;-59
2021/09/12 11:51:32;;;;;;;15.63;7.00;;;22.90;85.00;;;;;;4185423;28;20495;-60
2021/09/12 11:54:12;;;;;;;3.58;3.30;;;22.90;84.70;;;;;;4173048;28;20110;-59
2021/09/12 11:56:41;;;;;;;3.63;2.55;;;22.90;84.00;;;;;;4186339;28;20074;-60
2021/09/12 11:59:05;;;;;;;2.90;1.90;;;22.90;83.60;;;;;;4192982;28;20076;-60
2021/09/12 12:01:27;;;;;;;1.10;1.00;;;22.90;82.70;;;;;;4192393;28;20505;-59
2021/09/12 12:03:51;;;;;;;2.35;1.40;;;22.90;82.70;;;;;;4175921;28;20053;-59
2021/09/12 12:06:13;;;;;;;1.17;0.93;;;22.90;81.90;;;;;;4176085;28;20041;-60
2021/09/12 12:08:35;;;;;;;3.67;1.15;;;22.90;81.70;;;;;;4175245;28;20055;-60
2021/09/12 12:11:05;;;;;;;1.52;0.77;;;22.90;81.10;;;;;;4175740;28;20128;-61
2021/09/12 12:13:30;;;;;;;0.55;0.50;;;22.90;79.20;;;;;;4175828;28;20056;-60
2021/09/12 12:16:00;;;;;;;1.70;0.93;;;22.90;78.90;;;;;;4175477;28;20068;-59
2021/09/12 12:18:22;;;;;;;2.78;1.65;;;22.90;79.80;;;;;;4176050;28;20494;-60
2021/09/12 12:20:45;;;;;;;2.55;1.77;;;22.90;81.80;;;;;;4175323;28;20079;-60
2021/09/12 12:23:16;;;;;;;5.63;1.63;;;22.90;80.70;;;;;;4177080;28;20122;-59